Search for airport 
image banner adimage banner adimage banner ad
image banner ad

CL80 - Sherman Oaks Hospital

Located in Sherman Oaks, United States

ICAO - CL80, IATA -

Data provided by Airmate  

General information

Coordinates: N34°9'36" W118°26'58"
Elevation is 697 feet MSL.
Magnetic variation is 14° East
View others Airports in California

Operational data

Special qualification required
Current time UTC:
Current local time:
Weather at : KVNY - Van Nuys ( 7 km )
METAR: KVNY 240851Z AUTO 09004KT 10SM CLR 17/13 A2999 RMK AO2 SLP145 T01720133 50000
TAF: KVNY 240559Z 2406/2506 VRB03KT P6SM SKC FM242000 14009KT P6SM SKC FM250400 12005KT P6SM SKC
View NOTAMs / SUP AIP / TFR affecting this airport [VIEW]
Communications frequencies: [VIEW]

Runways:

Airport contact information

Address: Sherman Oaks United States

Satellite view of CL80